Merrill Field Anchorage US
ICAO: PAMR
IATA:
Category: Medium
Scheduled Services:

Elevation: 137 ft
TransAlt. 18000 ft.

Airport Communications:
ANCHORAGE APP/DEP:119.1
ATIS:124.25
CTAF:126
KENAI RDO:122.2
GND:121.7
KENAI RDO:122.3
TWR:126
UNICOM:122.95

PAMR Zoom In..

If Map Doesn't Load, Click Here

Runways:

(A) RW 05 length 2000 ft width 60 ft
---- / hdg 47

(B) RW 07 length 4000 ft width 100 ft
---- / hdg 71

(C) RW 16 length 2640 ft width 75 ft
---- / hdg 161

(D) RW 23 length 2000 ft width 60 ft
---- / hdg 227

(E) RW 25 length 4000 ft width 100 ft
---- / hdg 251

(F) RW 34 length 2640 ft width 75 ft
---- / hdg 341

Location; PAMR
Day. 23 / Time. 21.53 Zulu
* Altimeter: 29.82
* Temperature: 14° c. 57.2°f.
* Wind from: 190° Speed 09 kn.
Dewpoint: 03° c.
Visibility: 10 Statute Miles.
Clouds: Scattered 8000 ft.

PAMR 232153Z 19009KT 10SM SCT080 14/03 A2982 RMK AO2 SLP100 T01440033


Wind From 190°
Speed 09 kn.

 
 
jpsmedia.com for Web Design worldairports.se 2018   terms of use